sensor_id;sensor_type;location;lat;lon;timestamp;P1;durP1;ratioP1;P2;durP2;ratioP2
23434;SDS011;11890;45.380;11.028;2023-01-19T00:01:29;44.45;;;22.63;;
23434;SDS011;11890;45.380;11.028;2023-01-19T00:03:57;43.78;;;22.48;;
23434;SDS011;11890;45.380;11.028;2023-01-19T00:06:25;41.60;;;22.45;;
23434;SDS011;11890;45.380;11.028;2023-01-19T00:08:52;46.15;;;23.42;;
23434;SDS011;11890;45.380;11.028;2023-01-19T00:11:20;44.53;;;22.63;;
23434;SDS011;11890;45.380;11.028;2023-01-19T00:13:48;43.28;;;24.75;;
23434;SDS011;11890;45.380;11.028;2023-01-19T00:16:16;45.00;;;23.67;;
23434;SDS011;11890;45.380;11.028;2023-01-19T00:18:45;47.83;;;23.52;;
23434;SDS011;11890;45.380;11.028;2023-01-19T00:21:12;43.67;;;23.27;;
23434;SDS011;11890;45.380;11.028;2023-01-19T00:23:40;54.88;;;26.55;;
23434;SDS011;11890;45.380;11.028;2023-01-19T00:26:09;40.08;;;22.85;;
23434;SDS011;11890;45.380;11.028;2023-01-19T00:28:37;43.90;;;22.90;;
23434;SDS011;11890;45.380;11.028;2023-01-19T00:31:05;48.10;;;22.58;;
23434;SDS011;11890;45.380;11.028;2023-01-19T00:33:33;45.08;;;23.80;;
23434;SDS011;11890;45.380;11.028;2023-01-19T00:36:00;46.25;;;24.90;;
23434;SDS011;11890;45.380;11.028;2023-01-19T00:38:28;48.72;;;23.52;;
23434;SDS011;11890;45.380;11.028;2023-01-19T00:40:55;50.28;;;23.63;;
23434;SDS011;11890;45.380;11.028;2023-01-19T00:43:23;47.88;;;23.58;;
23434;SDS011;11890;45.380;11.028;2023-01-19T00:45:51;51.30;;;23.73;;
23434;SDS011;11890;45.380;11.028;2023-01-19T00:48:19;45.58;;;22.77;;
23434;SDS011;11890;45.380;11.028;2023-01-19T00:50:46;44.13;;;21.90;;
23434;SDS011;11890;45.380;11.028;2023-01-19T00:53:14;42.15;;;22.75;;
23434;SDS011;11890;45.380;11.028;2023-01-19T00:55:42;40.17;;;22.55;;
23434;SDS011;11890;45.380;11.028;2023-01-19T00:58:10;44.75;;;22.55;;
23434;SDS011;11890;45.380;11.028;2023-01-19T01:00:37;42.90;;;22.73;;
23434;SDS011;11890;45.380;11.028;2023-01-19T01:03:05;44.53;;;23.42;;
23434;SDS011;11890;45.380;11.028;2023-01-19T01:05:33;41.83;;;21.75;;
23434;SDS011;11890;45.380;11.028;2023-01-19T01:08:01;48.00;;;23.17;;
23434;SDS011;11890;45.380;11.028;2023-01-19T01:10:28;46.00;;;22.33;;
23434;SDS011;11890;45.380;11.028;2023-01-19T01:12:56;43.78;;;22.67;;
23434;SDS011;11890;45.380;11.028;2023-01-19T01:15:25;46.85;;;22.50;;
23434;SDS011;11890;45.380;11.028;2023-01-19T01:17:53;42.85;;;22.63;;
23434;SDS011;11890;45.380;11.028;2023-01-19T01:20:23;46.40;;;23.60;;
23434;SDS011;11890;45.380;11.028;2023-01-19T01:22:51;55.50;;;26.05;;
23434;SDS011;11890;45.380;11.028;2023-01-19T01:25:20;46.53;;;23.83;;
23434;SDS011;11890;45.380;11.028;2023-01-19T01:27:51;47.00;;;23.33;;
23434;SDS011;11890;45.380;11.028;2023-01-19T01:30:18;49.33;;;24.83;;
23434;SDS011;11890;45.380;11.028;2023-01-19T01:32:46;49.25;;;24.65;;
23434;SDS011;11890;45.380;11.028;2023-01-19T01:35:14;47.90;;;24.10;;
23434;SDS011;11890;45.380;11.028;2023-01-19T01:37:42;46.97;;;25.15;;
23434;SDS011;11890;45.380;11.028;2023-01-19T01:40:11;46.88;;;23.85;;
23434;SDS011;11890;45.380;11.028;2023-01-19T01:42:39;46.10;;;23.88;;
23434;SDS011;11890;45.380;11.028;2023-01-19T01:47:54;50.08;;;25.17;;
23434;SDS011;11890;45.380;11.028;2023-01-19T01:50:25;48.67;;;24.30;;
23434;SDS011;11890;45.380;11.028;2023-01-19T01:52:57;54.83;;;26.23;;
23434;SDS011;11890;45.380;11.028;2023-01-19T01:55:34;48.22;;;25.10;;
23434;SDS011;11890;45.380;11.028;2023-01-19T01:58:03;45.38;;;23.77;;
23434;SDS011;11890;45.380;11.028;2023-01-19T02:00:31;47.83;;;23.60;;
23434;SDS011;11890;45.380;11.028;2023-01-19T02:03:20;44.40;;;22.38;;
23434;SDS011;11890;45.380;11.028;2023-01-19T02:05:49;49.38;;;25.98;;
23434;SDS011;11890;45.380;11.028;2023-01-19T02:11:22;43.83;;;23.13;;
23434;SDS011;11890;45.380;11.028;2023-01-19T02:14:08;46.40;;;23.38;;
23434;SDS011;11890;45.380;11.028;2023-01-19T02:16:36;42.72;;;23.20;;
23434;SDS011;11890;45.380;11.028;2023-01-19T02:19:04;46.15;;;24.33;;
23434;SDS011;11890;45.380;11.028;2023-01-19T02:21:48;46.67;;;24.25;;
23434;SDS011;11890;45.380;11.028;2023-01-19T02:24:18;44.65;;;23.05;;
23434;SDS011;11890;45.380;11.028;2023-01-19T02:26:46;49.80;;;25.15;;
23434;SDS011;11890;45.380;11.028;2023-01-19T02:29:19;56.17;;;27.58;;
23434;SDS011;11890;45.380;11.028;2023-01-19T02:31:47;50.97;;;25.70;;
23434;SDS011;11890;45.380;11.028;2023-01-19T02:34:15;48.85;;;26.02;;
23434;SDS011;11890;45.380;11.028;2023-01-19T02:36:47;48.53;;;24.90;;
23434;SDS011;11890;45.380;11.028;2023-01-19T02:39:16;49.97;;;23.95;;
23434;SDS011;11890;45.380;11.028;2023-01-19T02:41:46;51.40;;;25.40;;
23434;SDS011;11890;45.380;11.028;2023-01-19T02:44:16;50.60;;;25.55;;
23434;SDS011;11890;45.380;11.028;2023-01-19T02:46:44;49.05;;;25.30;;
23434;SDS011;11890;45.380;11.028;2023-01-19T02:49:12;49.53;;;25.10;;
23434;SDS011;11890;45.380;11.028;2023-01-19T02:51:41;48.65;;;24.90;;
23434;SDS011;11890;45.380;11.028;2023-01-19T02:54:18;43.55;;;23.20;;
23434;SDS011;11890;45.380;11.028;2023-01-19T03:07:43;45.10;;;24.00;;
23434;SDS011;11890;45.380;11.028;2023-01-19T03:15:18;48.22;;;25.17;;
23434;SDS011;11890;45.380;11.028;2023-01-19T03:17:48;45.78;;;24.30;;
23434;SDS011;11890;45.380;11.028;2023-01-19T03:20:17;48.00;;;24.27;;
23434;SDS011;11890;45.380;11.028;2023-01-19T03:22:46;52.13;;;24.95;;
23434;SDS011;11890;45.380;11.028;2023-01-19T03:25:16;50.33;;;25.13;;
23434;SDS011;11890;45.380;11.028;2023-01-19T03:27:45;48.83;;;24.88;;
23434;SDS011;11890;45.380;11.028;2023-01-19T03:30:14;45.83;;;24.45;;
23434;SDS011;11890;45.380;11.028;2023-01-19T03:32:47;56.45;;;26.98;;
23434;SDS011;11890;45.380;11.028;2023-01-19T03:35:16;47.58;;;24.92;;
23434;SDS011;11890;45.380;11.028;2023-01-19T03:37:46;46.80;;;24.10;;
23434;SDS011;11890;45.380;11.028;2023-01-19T03:40:15;50.17;;;25.80;;
23434;SDS011;11890;45.380;11.028;2023-01-19T03:42:43;47.30;;;24.90;;
23434;SDS011;11890;45.380;11.028;2023-01-19T03:45:11;46.63;;;25.42;;
23434;SDS011;11890;45.380;11.028;2023-01-19T03:47:39;48.47;;;25.05;;
23434;SDS011;11890;45.380;11.028;2023-01-19T03:50:08;45.88;;;25.58;;
23434;SDS011;11890;45.380;11.028;2023-01-19T03:52:39;41.30;;;19.27;;
23434;SDS011;11890;45.380;11.028;2023-01-19T03:55:07;41.80;;;21.80;;
23434;SDS011;11890;45.380;11.028;2023-01-19T03:57:36;36.67;;;19.55;;
23434;SDS011;11890;45.380;11.028;2023-01-19T04:00:03;36.33;;;19.15;;
23434;SDS011;11890;45.380;11.028;2023-01-19T04:02:37;37.45;;;19.80;;
23434;SDS011;11890;45.380;11.028;2023-01-19T04:05:05;34.80;;;18.52;;
23434;SDS011;11890;45.380;11.028;2023-01-19T04:07:33;34.20;;;18.98;;
23434;SDS011;11890;45.380;11.028;2023-01-19T04:10:00;37.40;;;18.05;;
23434;SDS011;11890;45.380;11.028;2023-01-19T04:12:28;33.90;;;17.35;;
23434;SDS011;11890;45.380;11.028;2023-01-19T04:14:55;34.88;;;17.95;;
23434;SDS011;11890;45.380;11.028;2023-01-19T04:17:23;33.50;;;18.80;;
23434;SDS011;11890;45.380;11.028;2023-01-19T04:19:51;34.80;;;18.73;;
23434;SDS011;11890;45.380;11.028;2023-01-19T04:22:19;38.92;;;19.83;;
23434;SDS011;11890;45.380;11.028;2023-01-19T04:24:46;39.95;;;20.88;;
23434;SDS011;11890;45.380;11.028;2023-01-19T04:27:14;36.47;;;19.25;;
23434;SDS011;11890;45.380;11.028;2023-01-19T04:29:42;40.22;;;20.55;;
23434;SDS011;11890;45.380;11.028;2023-01-19T04:32:11;37.28;;;18.73;;
23434;SDS011;11890;45.380;11.028;2023-01-19T04:34:39;38.13;;;20.38;;
23434;SDS011;11890;45.380;11.028;2023-01-19T04:37:07;40.85;;;20.95;;
23434;SDS011;11890;45.380;11.028;2023-01-19T04:39:34;44.20;;;23.30;;
23434;SDS011;11890;45.380;11.028;2023-01-19T04:42:02;48.47;;;24.13;;
23434;SDS011;11890;45.380;11.028;2023-01-19T04:44:30;45.67;;;24.45;;
23434;SDS011;11890;45.380;11.028;2023-01-19T04:46:57;44.47;;;24.27;;
23434;SDS011;11890;45.380;11.028;2023-01-19T04:49:25;45.63;;;23.65;;
23434;SDS011;11890;45.380;11.028;2023-01-19T04:51:53;51.45;;;25.45;;
23434;SDS011;11890;45.380;11.028;2023-01-19T04:54:20;43.05;;;23.73;;
23434;SDS011;11890;45.380;11.028;2023-01-19T04:56:48;52.88;;;26.40;;
23434;SDS011;11890;45.380;11.028;2023-01-19T04:59:15;46.33;;;24.52;;
23434;SDS011;11890;45.380;11.028;2023-01-19T05:01:43;51.70;;;25.65;;
23434;SDS011;11890;45.380;11.028;2023-01-19T05:04:11;49.25;;;25.30;;
23434;SDS011;11890;45.380;11.028;2023-01-19T05:06:38;52.65;;;25.35;;
23434;SDS011;11890;45.380;11.028;2023-01-19T05:09:06;48.33;;;24.92;;
23434;SDS011;11890;45.380;11.028;2023-01-19T05:11:34;46.97;;;25.02;;
23434;SDS011;11890;45.380;11.028;2023-01-19T05:14:02;47.92;;;23.17;;
23434;SDS011;11890;45.380;11.028;2023-01-19T05:16:30;44.33;;;22.83;;
23434;SDS011;11890;45.380;11.028;2023-01-19T05:18:57;44.60;;;24.35;;
23434;SDS011;11890;45.380;11.028;2023-01-19T05:21:25;46.53;;;23.63;;
23434;SDS011;11890;45.380;11.028;2023-01-19T05:23:52;44.85;;;23.20;;
23434;SDS011;11890;45.380;11.028;2023-01-19T05:26:20;43.60;;;23.55;;
23434;SDS011;11890;45.380;11.028;2023-01-19T05:28:48;46.85;;;25.02;;
23434;SDS011;11890;45.380;11.028;2023-01-19T05:31:16;46.38;;;24.42;;
23434;SDS011;11890;45.380;11.028;2023-01-19T05:33:45;62.80;;;35.67;;
23434;SDS011;11890;45.380;11.028;2023-01-19T05:36:13;49.50;;;25.48;;
23434;SDS011;11890;45.380;11.028;2023-01-19T05:38:41;43.80;;;23.77;;
23434;SDS011;11890;45.380;11.028;2023-01-19T05:41:09;47.42;;;25.58;;
23434;SDS011;11890;45.380;11.028;2023-01-19T05:43:36;40.65;;;22.75;;
23434;SDS011;11890;45.380;11.028;2023-01-19T05:46:04;42.28;;;22.83;;
23434;SDS011;11890;45.380;11.028;2023-01-19T05:48:32;35.65;;;20.42;;
23434;SDS011;11890;45.380;11.028;2023-01-19T05:50:59;32.72;;;18.13;;
23434;SDS011;11890;45.380;11.028;2023-01-19T05:53:27;30.95;;;16.65;;
23434;SDS011;11890;45.380;11.028;2023-01-19T05:55:59;33.63;;;16.98;;
23434;SDS011;11890;45.380;11.028;2023-01-19T05:58:27;39.40;;;20.48;;
23434;SDS011;11890;45.380;11.028;2023-01-19T06:00:55;31.45;;;18.13;;
23434;SDS011;11890;45.380;11.028;2023-01-19T06:03:23;30.30;;;16.63;;
23434;SDS011;11890;45.380;11.028;2023-01-19T06:05:51;33.35;;;15.95;;
23434;SDS011;11890;45.380;11.028;2023-01-19T06:08:18;27.15;;;16.00;;
23434;SDS011;11890;45.380;11.028;2023-01-19T06:10:46;29.13;;;16.30;;
23434;SDS011;11890;45.380;11.028;2023-01-19T06:13:13;27.30;;;14.75;;
23434;SDS011;11890;45.380;11.028;2023-01-19T06:15:41;29.98;;;16.13;;
23434;SDS011;11890;45.380;11.028;2023-01-19T06:18:10;29.30;;;17.10;;
23434;SDS011;11890;45.380;11.028;2023-01-19T06:20:38;31.23;;;16.92;;
23434;SDS011;11890;45.380;11.028;2023-01-19T06:23:05;29.40;;;16.08;;
23434;SDS011;11890;45.380;11.028;2023-01-19T06:25:33;33.78;;;18.27;;
23434;SDS011;11890;45.380;11.028;2023-01-19T06:28:01;32.97;;;17.10;;
23434;SDS011;11890;45.380;11.028;2023-01-19T06:30:28;29.73;;;16.63;;
23434;SDS011;11890;45.380;11.028;2023-01-19T06:32:56;31.25;;;16.92;;
23434;SDS011;11890;45.380;11.028;2023-01-19T06:35:24;27.63;;;17.02;;
23434;SDS011;11890;45.380;11.028;2023-01-19T06:37:52;29.45;;;16.23;;
23434;SDS011;11890;45.380;11.028;2023-01-19T06:40:20;28.00;;;16.33;;
23434;SDS011;11890;45.380;11.028;2023-01-19T06:42:47;33.35;;;17.92;;
23434;SDS011;11890;45.380;11.028;2023-01-19T06:45:15;31.48;;;17.58;;
23434;SDS011;11890;45.380;11.028;2023-01-19T06:47:45;28.95;;;16.10;;
23434;SDS011;11890;45.380;11.028;2023-01-19T06:50:13;26.00;;;16.13;;
23434;SDS011;11890;45.380;11.028;2023-01-19T06:52:41;30.02;;;16.25;;
23434;SDS011;11890;45.380;11.028;2023-01-19T06:55:09;32.13;;;17.63;;
23434;SDS011;11890;45.380;11.028;2023-01-19T06:57:37;37.60;;;19.75;;
23434;SDS011;11890;45.380;11.028;2023-01-19T07:00:06;36.83;;;18.80;;
23434;SDS011;11890;45.380;11.028;2023-01-19T07:02:35;31.63;;;17.35;;
23434;SDS011;11890;45.380;11.028;2023-01-19T07:05:03;35.10;;;18.75;;
23434;SDS011;11890;45.380;11.028;2023-01-19T07:07:32;27.95;;;16.50;;
23434;SDS011;11890;45.380;11.028;2023-01-19T07:10:00;29.52;;;16.85;;
23434;SDS011;11890;45.380;11.028;2023-01-19T07:12:27;31.38;;;16.45;;
23434;SDS011;11890;45.380;11.028;2023-01-19T07:14:56;28.70;;;16.60;;
23434;SDS011;11890;45.380;11.028;2023-01-19T07:17:24;25.13;;;15.30;;
23434;SDS011;11890;45.380;11.028;2023-01-19T07:19:52;25.77;;;14.90;;
23434;SDS011;11890;45.380;11.028;2023-01-19T07:22:19;25.08;;;15.02;;
23434;SDS011;11890;45.380;11.028;2023-01-19T07:24:47;28.67;;;14.63;;
23434;SDS011;11890;45.380;11.028;2023-01-19T07:27:14;25.20;;;14.63;;
23434;SDS011;11890;45.380;11.028;2023-01-19T07:29:42;24.38;;;13.07;;
23434;SDS011;11890;45.380;11.028;2023-01-19T07:32:10;20.65;;;12.77;;
23434;SDS011;11890;45.380;11.028;2023-01-19T07:34:37;24.75;;;13.70;;
23434;SDS011;11890;45.380;11.028;2023-01-19T07:37:05;19.90;;;12.05;;
23434;SDS011;11890;45.380;11.028;2023-01-19T07:39:33;22.27;;;12.23;;
23434;SDS011;11890;45.380;11.028;2023-01-19T07:42:02;20.42;;;12.35;;
23434;SDS011;11890;45.380;11.028;2023-01-19T07:44:30;26.40;;;12.68;;
23434;SDS011;11890;45.380;11.028;2023-01-19T07:46:58;16.98;;;10.52;;
23434;SDS011;11890;45.380;11.028;2023-01-19T07:49:25;17.55;;;10.10;;
23434;SDS011;11890;45.380;11.028;2023-01-19T07:51:53;15.55;;;9.68;;
23434;SDS011;11890;45.380;11.028;2023-01-19T07:54:22;17.92;;;11.32;;
23434;SDS011;11890;45.380;11.028;2023-01-19T07:56:52;17.23;;;10.75;;
23434;SDS011;11890;45.380;11.028;2023-01-19T07:59:20;20.05;;;12.02;;
23434;SDS011;11890;45.380;11.028;2023-01-19T08:01:48;18.33;;;11.13;;
23434;SDS011;11890;45.380;11.028;2023-01-19T08:04:15;20.23;;;11.98;;
23434;SDS011;11890;45.380;11.028;2023-01-19T08:06:44;19.50;;;11.48;;
23434;SDS011;11890;45.380;11.028;2023-01-19T08:09:13;19.27;;;12.35;;
23434;SDS011;11890;45.380;11.028;2023-01-19T08:11:40;21.10;;;13.60;;
23434;SDS011;11890;45.380;11.028;2023-01-19T08:14:08;26.77;;;14.65;;
23434;SDS011;11890;45.380;11.028;2023-01-19T08:16:36;25.45;;;15.32;;
23434;SDS011;11890;45.380;11.028;2023-01-19T08:19:03;28.55;;;16.70;;
23434;SDS011;11890;45.380;11.028;2023-01-19T08:21:31;21.17;;;12.77;;
23434;SDS011;11890;45.380;11.028;2023-01-19T08:24:01;22.67;;;12.32;;
23434;SDS011;11890;45.380;11.028;2023-01-19T08:26:29;20.73;;;11.70;;
23434;SDS011;11890;45.380;11.028;2023-01-19T08:28:58;18.77;;;11.40;;
23434;SDS011;11890;45.380;11.028;2023-01-19T08:31:27;22.13;;;11.80;;
23434;SDS011;11890;45.380;11.028;2023-01-19T08:33:55;20.05;;;11.82;;
23434;SDS011;11890;45.380;11.028;2023-01-19T08:36:22;18.63;;;11.70;;
23434;SDS011;11890;45.380;11.028;2023-01-19T08:38:50;20.80;;;11.43;;
23434;SDS011;11890;45.380;11.028;2023-01-19T08:41:19;20.13;;;11.77;;
23434;SDS011;11890;45.380;11.028;2023-01-19T08:43:47;13.60;;;7.47;;
23434;SDS011;11890;45.380;11.028;2023-01-19T08:46:15;12.05;;;6.25;;
23434;SDS011;11890;45.380;11.028;2023-01-19T08:48:43;9.95;;;5.80;;
23434;SDS011;11890;45.380;11.028;2023-01-19T08:51:11;9.70;;;6.15;;
23434;SDS011;11890;45.380;11.028;2023-01-19T08:53:39;9.93;;;5.90;;
23434;SDS011;11890;45.380;11.028;2023-01-19T08:56:07;9.98;;;5.97;;
23434;SDS011;11890;45.380;11.028;2023-01-19T08:58:39;10.52;;;5.95;;
23434;SDS011;11890;45.380;11.028;2023-01-19T09:01:34;9.80;;;5.60;;
23434;SDS011;11890;45.380;11.028;2023-01-19T09:04:03;10.07;;;5.57;;
23434;SDS011;11890;45.380;11.028;2023-01-19T09:06:31;8.73;;;5.18;;
23434;SDS011;11890;45.380;11.028;2023-01-19T09:08:58;8.32;;;5.03;;
23434;SDS011;11890;45.380;11.028;2023-01-19T09:11:26;7.05;;;4.43;;
23434;SDS011;11890;45.380;11.028;2023-01-19T09:13:54;8.77;;;4.65;;
23434;SDS011;11890;45.380;11.028;2023-01-19T09:16:21;7.38;;;4.40;;
23434;SDS011;11890;45.380;11.028;2023-01-19T09:18:49;8.13;;;4.63;;
23434;SDS011;11890;45.380;11.028;2023-01-19T09:21:17;5.95;;;3.50;;
23434;SDS011;11890;45.380;11.028;2023-01-19T09:23:44;5.57;;;2.83;;
23434;SDS011;11890;45.380;11.028;2023-01-19T09:26:12;2.88;;;2.08;;
23434;SDS011;11890;45.380;11.028;2023-01-19T09:28:40;4.75;;;2.83;;
23434;SDS011;11890;45.380;11.028;2023-01-19T09:31:08;4.63;;;3.10;;
23434;SDS011;11890;45.380;11.028;2023-01-19T09:33:35;4.25;;;2.83;;
23434;SDS011;11890;45.380;11.028;2023-01-19T09:36:03;5.28;;;2.65;;
23434;SDS011;11890;45.380;11.028;2023-01-19T09:38:31;4.78;;;2.60;;
23434;SDS011;11890;45.380;11.028;2023-01-19T09:40:59;4.28;;;2.38;;
23434;SDS011;11890;45.380;11.028;2023-01-19T09:43:34;4.53;;;3.40;;
23434;SDS011;11890;45.380;11.028;2023-01-19T09:48:41;9.23;;;2.85;;
23434;SDS011;11890;45.380;11.028;2023-01-19T09:56:09;3.28;;;2.00;;
23434;SDS011;11890;45.380;11.028;2023-01-19T09:58:37;4.00;;;2.60;;
23434;SDS011;11890;45.380;11.028;2023-01-19T10:03:52;11.65;;;7.40;;
23434;SDS011;11890;45.380;11.028;2023-01-19T10:06:25;5.38;;;3.38;;
23434;SDS011;11890;45.380;11.028;2023-01-19T10:08:54;6.68;;;2.65;;
23434;SDS011;11890;45.380;11.028;2023-01-19T10:11:31;5.82;;;3.13;;
23434;SDS011;11890;45.380;11.028;2023-01-19T10:14:24;6.47;;;3.65;;
23434;SDS011;11890;45.380;11.028;2023-01-19T10:19:41;9.70;;;4.82;;
23434;SDS011;11890;45.380;11.028;2023-01-19T10:22:17;6.60;;;4.13;;
23434;SDS011;11890;45.380;11.028;2023-01-19T10:24:47;7.10;;;4.72;;
23434;SDS011;11890;45.380;11.028;2023-01-19T10:27:17;5.45;;;4.20;;
23434;SDS011;11890;45.380;11.028;2023-01-19T10:29:45;7.85;;;4.70;;
23434;SDS011;11890;45.380;11.028;2023-01-19T10:32:14;7.50;;;4.53;;
23434;SDS011;11890;45.380;11.028;2023-01-19T10:34:50;5.57;;;4.13;;
23434;SDS011;11890;45.380;11.028;2023-01-19T10:39:53;7.40;;;3.97;;
23434;SDS011;11890;45.380;11.028;2023-01-19T10:42:21;5.22;;;3.65;;
23434;SDS011;11890;45.380;11.028;2023-01-19T10:44:49;5.95;;;3.40;;
23434;SDS011;11890;45.380;11.028;2023-01-19T10:47:18;5.15;;;3.15;;
23434;SDS011;11890;45.380;11.028;2023-01-19T10:49:46;5.45;;;3.47;;
23434;SDS011;11890;45.380;11.028;2023-01-19T10:52:19;7.30;;;4.00;;
23434;SDS011;11890;45.380;11.028;2023-01-19T10:54:50;6.88;;;3.30;;
23434;SDS011;11890;45.380;11.028;2023-01-19T10:57:21;6.00;;;3.28;;
23434;SDS011;11890;45.380;11.028;2023-01-19T10:59:52;7.57;;;2.80;;
23434;SDS011;11890;45.380;11.028;2023-01-19T11:04:48;4.05;;;2.80;;
23434;SDS011;11890;45.380;11.028;2023-01-19T11:07:35;4.10;;;2.80;;
23434;SDS011;11890;45.380;11.028;2023-01-19T11:12:45;104.47;;;53.45;;
23434;SDS011;11890;45.380;11.028;2023-01-19T11:15:14;7.50;;;3.92;;
23434;SDS011;11890;45.380;11.028;2023-01-19T11:17:43;25.33;;;15.30;;
23434;SDS011;11890;45.380;11.028;2023-01-19T11:20:20;7.60;;;5.18;;
23434;SDS011;11890;45.380;11.028;2023-01-19T11:23:02;8.27;;;5.82;;
23434;SDS011;11890;45.380;11.028;2023-01-19T11:25:31;10.73;;;6.47;;
23434;SDS011;11890;45.380;11.028;2023-01-19T11:28:00;10.48;;;5.85;;
23434;SDS011;11890;45.380;11.028;2023-01-19T11:30:29;7.40;;;5.13;;
23434;SDS011;11890;45.380;11.028;2023-01-19T11:32:57;5.30;;;3.45;;
23434;SDS011;11890;45.380;11.028;2023-01-19T11:35:38;5.18;;;3.63;;
23434;SDS011;11890;45.380;11.028;2023-01-19T11:40:34;5.13;;;2.70;;
23434;SDS011;11890;45.380;11.028;2023-01-19T11:43:02;5.47;;;3.20;;
23434;SDS011;11890;45.380;11.028;2023-01-19T11:45:30;4.95;;;3.42;;
23434;SDS011;11890;45.380;11.028;2023-01-19T11:48:00;4.82;;;3.65;;
23434;SDS011;11890;45.380;11.028;2023-01-19T11:50:42;7.13;;;4.85;;
23434;SDS011;11890;45.380;11.028;2023-01-19T11:53:24;5.10;;;3.28;;
23434;SDS011;11890;45.380;11.028;2023-01-19T11:58:22;4.95;;;3.78;;
23434;SDS011;11890;45.380;11.028;2023-01-19T12:00:52;18.30;;;12.77;;
23434;SDS011;11890;45.380;11.028;2023-01-19T12:03:25;4.18;;;3.13;;
23434;SDS011;11890;45.380;11.028;2023-01-19T12:05:58;5.65;;;3.08;;
23434;SDS011;11890;45.380;11.028;2023-01-19T12:08:35;5.47;;;3.40;;
23434;SDS011;11890;45.380;11.028;2023-01-19T12:11:03;5.72;;;3.85;;
23434;SDS011;11890;45.380;11.028;2023-01-19T12:13:32;8.25;;;5.38;;
23434;SDS011;11890;45.380;11.028;2023-01-19T12:18:34;6.05;;;3.70;;
23434;SDS011;11890;45.380;11.028;2023-01-19T12:21:03;6.65;;;4.05;;
23434;SDS011;11890;45.380;11.028;2023-01-19T12:28:51;10.20;;;5.68;;
23434;SDS011;11890;45.380;11.028;2023-01-19T12:31:19;6.72;;;4.00;;
23434;SDS011;11890;45.380;11.028;2023-01-19T12:33:48;5.40;;;3.65;;
23434;SDS011;11890;45.380;11.028;2023-01-19T12:38:47;7.30;;;5.38;;
23434;SDS011;11890;45.380;11.028;2023-01-19T12:43:46;8.00;;;4.35;;
23434;SDS011;11890;45.380;11.028;2023-01-19T12:46:17;7.32;;;5.57;;
23434;SDS011;11890;45.380;11.028;2023-01-19T12:48:45;6.45;;;4.53;;
23434;SDS011;11890;45.380;11.028;2023-01-19T12:51:23;5.35;;;3.95;;
23434;SDS011;11890;45.380;11.028;2023-01-19T12:53:51;6.50;;;4.60;;
23434;SDS011;11890;45.380;11.028;2023-01-19T12:56:19;5.63;;;3.38;;
23434;SDS011;11890;45.380;11.028;2023-01-19T12:58:53;2.20;;;1.65;;
23434;SDS011;11890;45.380;11.028;2023-01-19T13:01:21;2.30;;;1.42;;
23434;SDS011;11890;45.380;11.028;2023-01-19T13:03:58;4.85;;;3.20;;
23434;SDS011;11890;45.380;11.028;2023-01-19T13:09:27;2.45;;;1.40;;
23434;SDS011;11890;45.380;11.028;2023-01-19T13:14:41;2.13;;;1.42;;
23434;SDS011;11890;45.380;11.028;2023-01-19T13:17:17;1.63;;;1.25;;
23434;SDS011;11890;45.380;11.028;2023-01-19T13:19:49;2.75;;;1.73;;
23434;SDS011;11890;45.380;11.028;2023-01-19T13:25:11;2.22;;;1.77;;
23434;SDS011;11890;45.380;11.028;2023-01-19T13:27:39;2.67;;;1.77;;
23434;SDS011;11890;45.380;11.028;2023-01-19T13:30:11;2.85;;;1.88;;
23434;SDS011;11890;45.380;11.028;2023-01-19T13:32:42;2.95;;;2.13;;
23434;SDS011;11890;45.380;11.028;2023-01-19T13:35:13;2.28;;;1.92;;
23434;SDS011;11890;45.380;11.028;2023-01-19T13:37:43;3.42;;;2.10;;
23434;SDS011;11890;45.380;11.028;2023-01-19T13:40:22;2.20;;;1.70;;
23434;SDS011;11890;45.380;11.028;2023-01-19T13:42:50;2.40;;;1.90;;
23434;SDS011;11890;45.380;11.028;2023-01-19T13:47:53;3.95;;;2.28;;
23434;SDS011;11890;45.380;11.028;2023-01-19T13:50:28;3.10;;;2.08;;
23434;SDS011;11890;45.380;11.028;2023-01-19T13:52:56;4.00;;;2.03;;
23434;SDS011;11890;45.380;11.028;2023-01-19T13:55:25;2.35;;;1.85;;
23434;SDS011;11890;45.380;11.028;2023-01-19T13:57:54;4.25;;;1.95;;
23434;SDS011;11890;45.380;11.028;2023-01-19T14:00:26;1.88;;;1.50;;
23434;SDS011;11890;45.380;11.028;2023-01-19T14:08:04;1.98;;;1.55;;
23434;SDS011;11890;45.380;11.028;2023-01-19T14:10:32;1.90;;;1.67;;
23434;SDS011;11890;45.380;11.028;2023-01-19T14:13:00;2.03;;;1.52;;
23434;SDS011;11890;45.380;11.028;2023-01-19T14:15:30;2.05;;;1.60;;
23434;SDS011;11890;45.380;11.028;2023-01-19T14:28:57;2.30;;;1.60;;
23434;SDS011;11890;45.380;11.028;2023-01-19T14:31:33;2.40;;;1.42;;
23434;SDS011;11890;45.380;11.028;2023-01-19T14:36:55;2.55;;;1.58;;
23434;SDS011;11890;45.380;11.028;2023-01-19T14:39:23;2.85;;;1.20;;
23434;SDS011;11890;45.380;11.028;2023-01-19T14:41:52;2.67;;;1.40;;
23434;SDS011;11890;45.380;11.028;2023-01-19T14:44:25;2.05;;;1.40;;
23434;SDS011;11890;45.380;11.028;2023-01-19T14:46:54;2.70;;;1.70;;
23434;SDS011;11890;45.380;11.028;2023-01-19T14:49:33;1.92;;;1.25;;
23434;SDS011;11890;45.380;11.028;2023-01-19T14:52:03;3.30;;;1.73;;
23434;SDS011;11890;45.380;11.028;2023-01-19T14:54:38;2.03;;;1.63;;
23434;SDS011;11890;45.380;11.028;2023-01-19T14:57:10;1.60;;;1.30;;
23434;SDS011;11890;45.380;11.028;2023-01-19T14:59:39;2.20;;;1.50;;
23434;SDS011;11890;45.380;11.028;2023-01-19T15:02:07;2.90;;;2.00;;
23434;SDS011;11890;45.380;11.028;2023-01-19T15:04:35;3.08;;;1.90;;
23434;SDS011;11890;45.380;11.028;2023-01-19T15:07:03;2.53;;;1.60;;
23434;SDS011;11890;45.380;11.028;2023-01-19T15:09:30;2.33;;;1.65;;
23434;SDS011;11890;45.380;11.028;2023-01-19T15:11:58;3.45;;;2.13;;
23434;SDS011;11890;45.380;11.028;2023-01-19T15:14:26;4.75;;;2.00;;
23434;SDS011;11890;45.380;11.028;2023-01-19T15:16:53;4.18;;;1.80;;
23434;SDS011;11890;45.380;11.028;2023-01-19T15:19:21;5.50;;;2.40;;
23434;SDS011;11890;45.380;11.028;2023-01-19T15:21:49;3.22;;;1.92;;
23434;SDS011;11890;45.380;11.028;2023-01-19T15:24:16;2.50;;;1.65;;
23434;SDS011;11890;45.380;11.028;2023-01-19T15:26:44;2.53;;;1.70;;
23434;SDS011;11890;45.380;11.028;2023-01-19T15:29:16;2.92;;;1.55;;
23434;SDS011;11890;45.380;11.028;2023-01-19T15:31:45;1.58;;;1.20;;
23434;SDS011;11890;45.380;11.028;2023-01-19T15:34:13;1.33;;;1.13;;
23434;SDS011;11890;45.380;11.028;2023-01-19T15:36:40;2.58;;;1.27;;
23434;SDS011;11890;45.380;11.028;2023-01-19T15:39:08;2.15;;;1.58;;
23434;SDS011;11890;45.380;11.028;2023-01-19T15:41:39;1.85;;;1.20;;
23434;SDS011;11890;45.380;11.028;2023-01-19T15:44:08;2.92;;;1.38;;
23434;SDS011;11890;45.380;11.028;2023-01-19T15:46:36;1.65;;;1.10;;
23434;SDS011;11890;45.380;11.028;2023-01-19T15:49:04;2.35;;;1.40;;
23434;SDS011;11890;45.380;11.028;2023-01-19T15:51:32;2.72;;;1.50;;
23434;SDS011;11890;45.380;11.028;2023-01-19T15:53:59;1.90;;;1.20;;
23434;SDS011;11890;45.380;11.028;2023-01-19T15:56:28;2.28;;;1.45;;
23434;SDS011;11890;45.380;11.028;2023-01-19T15:58:56;3.80;;;2.08;;
23434;SDS011;11890;45.380;11.028;2023-01-19T16:01:25;6.55;;;3.08;;